createdAt,value
2022-11-20T00:02:13.416Z,99325.41
2022-11-20T00:07:15.267Z,99324.88
2022-11-20T00:12:17.195Z,99332.31
2022-11-20T00:17:18.834Z,99302.88
2022-11-20T00:22:20.442Z,99356.78
2022-11-20T00:27:22.074Z,99301.81
2022-11-20T00:32:23.754Z,99356.22
2022-11-20T00:37:25.437Z,99377.81
2022-11-20T00:42:27.077Z,99317.56
2022-11-20T00:47:28.655Z,99350.53
2022-11-20T00:52:30.241Z,99329.13
2022-11-20T00:57:32.537Z,99334.03
2022-11-20T01:02:34.099Z,99268.34
2022-11-20T01:07:35.715Z,99296.56
2022-11-20T01:12:37.301Z,99283.53
2022-11-20T01:17:38.883Z,99286.59
2022-11-20T01:22:40.402Z,99281.72
2022-11-20T01:27:42.127Z,99287.28
2022-11-20T01:32:43.703Z,99293.31
2022-11-20T01:37:45.276Z,99272.66
2022-11-20T01:43:17.441Z,99270.63
2022-11-20T01:48:21.611Z,99248.06
2022-11-20T01:53:28.961Z,99258.50
2022-11-20T01:58:34.962Z,99270.25
2022-11-20T02:03:37.231Z,99274.25
2022-11-20T02:08:39.164Z,99266.09
2022-11-20T02:13:44.170Z,99242.44
2022-11-20T02:18:46.876Z,99250.88
2022-11-20T02:23:54.643Z,99235.69
2022-11-20T02:28:56.686Z,99232.75
2022-11-20T02:33:59.090Z,99284.28
2022-11-20T02:39:00.894Z,99257.00
2022-11-20T02:44:03.537Z,99261.13
2022-11-20T02:49:06.185Z,99257.88
2022-11-20T02:54:07.726Z,99275.59
2022-11-20T02:59:09.338Z,99295.47
2022-11-20T03:04:10.911Z,99307.44
2022-11-20T03:09:12.978Z,99290.34
2022-11-20T03:14:15.217Z,99271.16
2022-11-20T03:19:16.858Z,99252.38
2022-11-20T03:24:18.575Z,99238.81
2022-11-20T03:29:20.481Z,99232.91
2022-11-20T03:34:22.283Z,99257.28
2022-11-20T03:39:24.258Z,99258.41
2022-11-20T03:44:26.224Z,99258.66
2022-11-20T03:49:27.817Z,99231.00
2022-11-20T03:54:29.489Z,99222.34
2022-11-20T03:59:31.178Z,99244.91
2022-11-20T04:04:32.778Z,99240.00
2022-11-20T04:09:34.370Z,99245.25
2022-11-20T04:14:35.955Z,99249.63
2022-11-20T04:19:37.542Z,99214.88
2022-11-20T04:24:39.162Z,99239.56
2022-11-20T04:29:40.758Z,99211.19
2022-11-20T04:34:42.375Z,99238.66
2022-11-20T04:39:44.009Z,99267.28
2022-11-20T04:44:45.581Z,99258.00
2022-11-20T04:49:47.283Z,99249.13
2022-11-20T04:54:48.929Z,99231.34
2022-11-20T04:59:50.512Z,99242.09
2022-11-20T05:04:52.350Z,99253.41
2022-11-20T05:09:54.014Z,99271.94
2022-11-20T05:14:55.583Z,99246.78
2022-11-20T05:19:57.171Z,99238.78
2022-11-20T05:24:58.806Z,99242.75
2022-11-20T05:30:00.443Z,99235.13
2022-11-20T05:35:02.094Z,99254.44
2022-11-20T05:40:04.078Z,99243.38
2022-11-20T05:45:06.929Z,99271.06
2022-11-20T05:50:08.968Z,99235.53
2022-11-20T05:55:10.779Z,99196.19
2022-11-20T06:00:12.987Z,99212.72
2022-11-20T06:05:14.639Z,99207.69
2022-11-20T06:10:16.206Z,99270.41
2022-11-20T06:15:17.920Z,99222.78
2022-11-20T06:20:19.510Z,99269.69
2022-11-20T06:25:21.058Z,99262.69
2022-11-20T06:30:22.636Z,99231.19
2022-11-20T06:35:24.215Z,99269.19
2022-11-20T06:40:25.838Z,99284.88
2022-11-20T06:45:27.845Z,99276.25
2022-11-20T06:50:29.402Z,99224.53
2022-11-20T06:55:32.230Z,99253.44
2022-11-20T07:00:33.857Z,99279.53
2022-11-20T07:05:36.556Z,99248.47
2022-11-20T07:10:38.264Z,99306.28
2022-11-20T07:15:39.932Z,99278.44
2022-11-20T07:20:41.537Z,99253.94
2022-11-20T07:25:43.151Z,99305.03
2022-11-20T07:30:51.104Z,99280.56
2022-11-20T07:35:55.078Z,99305.00
2022-11-20T07:40:58.515Z,99299.56
2022-11-20T07:46:00.619Z,99312.47
2022-11-20T07:51:02.375Z,99287.00
2022-11-20T07:56:04.535Z,99303.25
2022-11-20T08:01:08.133Z,99320.03
2022-11-20T08:06:10.293Z,99284.31
2022-11-20T08:11:30.191Z,99304.91
2022-11-20T08:16:31.879Z,99306.03
2022-11-20T08:21:37.980Z,99282.22
2022-11-20T08:26:41.070Z,99312.66
2022-11-20T08:31:42.722Z,99313.44
2022-11-20T08:36:44.363Z,99345.13
2022-11-20T08:41:46.042Z,99343.97
2022-11-20T08:46:48.118Z,99309.34
2022-11-20T08:51:52.699Z,99370.91
2022-11-20T08:56:54.399Z,99364.88
2022-11-20T09:01:55.995Z,99307.44
2022-11-20T09:06:57.750Z,99363.78
2022-11-20T09:11:59.614Z,99311.22
2022-11-20T09:17:01.257Z,99394.13
2022-11-20T09:22:03.030Z,99399.84
2022-11-20T09:27:05.905Z,99373.84
2022-11-20T09:32:07.629Z,99352.47
2022-11-20T09:37:09.266Z,99336.06
2022-11-20T09:42:20.970Z,99364.59
2022-11-20T09:48:01.503Z,99410.47
2022-11-20T09:53:31.657Z,99440.41
2022-11-20T09:58:53.490Z,99408.91
2022-11-20T10:04:17.819Z,99417.88
2022-11-20T10:09:29.958Z,99383.53
2022-11-20T10:14:31.476Z,99426.19
2022-11-20T10:19:57.319Z,99407.94
2022-11-20T10:25:20.302Z,99381.66
2022-11-20T10:30:25.955Z,99436.44
2022-11-20T10:35:40.182Z,99389.91
2022-11-20T10:40:52.154Z,99391.47
2022-11-20T10:46:41.174Z,99400.81
2022-11-20T10:52:21.709Z,99413.03
2022-11-20T10:58:00.955Z,99396.38
2022-11-20T11:06:19.758Z,99349.00
2022-11-20T11:11:29.061Z,99321.91
2022-11-20T11:16:30.631Z,99321.72
2022-11-20T11:21:32.366Z,99314.75
2022-11-20T11:26:34.039Z,99330.06
2022-11-20T11:31:36.420Z,99329.34
2022-11-20T11:36:38.597Z,99292.31
2022-11-20T11:41:41.098Z,99333.94
2022-11-20T11:46:54.403Z,99311.91
2022-11-20T11:52:19.483Z,99329.53
2022-11-20T11:57:23.961Z,99313.22
2022-11-20T12:02:37.950Z,99302.28
2022-11-20T12:07:47.591Z,99303.00
2022-11-20T12:12:55.715Z,99322.50
2022-11-20T12:17:57.791Z,99339.84
2022-11-20T12:23:26.726Z,99345.31
2022-11-20T12:28:46.823Z,99361.31
2022-11-20T12:33:51.174Z,99364.72
2022-11-20T12:38:52.891Z,99351.44
2022-11-20T12:44:50.125Z,99354.06
2022-11-20T12:50:03.308Z,99343.69
2022-11-20T12:55:32.633Z,99341.78
2022-11-20T13:00:35.773Z,99344.94
2022-11-20T13:05:59.302Z,99370.16
2022-11-20T13:11:09.778Z,99391.75
2022-11-20T13:16:14.762Z,99399.78
2022-11-20T13:21:19.777Z,99382.59
2022-11-20T13:26:24.070Z,99378.72
2022-11-20T13:31:33.332Z,99363.16
2022-11-20T13:36:37.567Z,99355.22
2022-11-20T13:41:40.497Z,99372.00
2022-11-20T13:46:45.599Z,99375.53
2022-11-20T13:51:52.705Z,99374.09
2022-11-20T13:57:22.476Z,99373.91
2022-11-20T14:02:27.777Z,99362.41
2022-11-20T14:07:51.136Z,99355.91
2022-11-20T14:12:53.127Z,99354.44
2022-11-20T14:17:54.808Z,99329.59
2022-11-20T14:22:57.002Z,99329.63
2022-11-20T14:28:00.979Z,99305.78
2022-11-20T14:33:04.699Z,99316.16
2022-11-20T14:38:14.316Z,99306.41
2022-11-20T14:43:20.467Z,99282.00
2022-11-20T14:48:29.506Z,99292.03
2022-11-20T14:53:31.136Z,99294.44
2022-11-20T14:58:34.569Z,99273.84
2022-11-20T15:03:39.006Z,99267.25
2022-11-20T15:08:52.416Z,99258.16
2022-11-20T15:13:54.022Z,99257.22
2022-11-20T15:18:56.386Z,99286.97
2022-11-20T15:23:58.329Z,99272.44
2022-11-20T15:29:00.045Z,99269.00
2022-11-20T15:34:01.698Z,99252.63
2022-11-20T15:39:03.594Z,99273.97
2022-11-20T15:44:05.867Z,99276.25
2022-11-20T15:49:13.342Z,99267.41
2022-11-20T15:54:19.106Z,99237.06
2022-11-20T15:59:21.717Z,99261.66
2022-11-20T16:04:23.560Z,99241.03
2022-11-20T16:09:25.403Z,99230.34
2022-11-20T16:14:46.558Z,99240.44
2022-11-20T16:19:48.222Z,99225.75
2022-11-20T16:24:49.889Z,99214.06
2022-11-20T16:29:51.520Z,99207.50
2022-11-20T16:34:54.163Z,99199.50
2022-11-20T16:39:57.317Z,99189.50
2022-11-20T16:44:59.192Z,99175.28
2022-11-20T16:50:01.923Z,99173.91
2022-11-20T16:55:04.037Z,99178.56
2022-11-20T17:00:08.302Z,99182.31
2022-11-20T17:05:10.040Z,99149.25
2022-11-20T17:10:11.818Z,99152.34
2022-11-20T17:15:13.391Z,99112.13
2022-11-20T17:20:14.982Z,99113.28
2022-11-20T17:25:17.173Z,99121.09
2022-11-20T17:30:19.314Z,99082.03
2022-11-20T17:35:21.470Z,99122.63
2022-11-20T17:40:27.409Z,99116.31
2022-11-20T17:45:29.564Z,99073.72
2022-11-20T17:50:31.181Z,99100.75
2022-11-20T17:55:55.905Z,99088.47
2022-11-20T18:01:05.190Z,99089.41
2022-11-20T18:06:14.228Z,99095.97
2022-11-20T18:11:16.809Z,99074.09
2022-11-20T18:16:18.459Z,99076.44
2022-11-20T18:21:20.103Z,99059.50
2022-11-20T18:26:21.954Z,99039.09
2022-11-20T18:31:24.073Z,99038.06
2022-11-20T18:36:28.253Z,99022.78
2022-11-20T18:41:49.911Z,99002.69
2022-11-20T18:46:51.678Z,98985.28
2022-11-20T18:51:53.702Z,98977.69
2022-11-20T18:56:55.494Z,98960.81
2022-11-20T19:01:57.111Z,98966.25
2022-11-20T19:06:58.773Z,98948.16
2022-11-20T19:12:05.220Z,98942.16
2022-11-20T19:17:07.411Z,98964.03
2022-11-20T19:22:09.474Z,98928.22
2022-11-20T19:27:11.240Z,98949.00
2022-11-20T19:32:12.861Z,98939.75
2022-11-20T19:37:14.454Z,98938.06
2022-11-20T19:42:16.122Z,98944.66
2022-11-20T19:47:17.713Z,98936.09
2022-11-20T19:52:19.291Z,98907.97
2022-11-20T19:57:20.838Z,98909.34
2022-11-20T20:02:22.407Z,98914.47
2022-11-20T20:07:24.100Z,98917.03
2022-11-20T20:12:25.711Z,98893.97
2022-11-20T20:17:27.405Z,98913.41
2022-11-20T20:22:28.988Z,98925.06
2022-11-20T20:27:31.343Z,98923.41
2022-11-20T20:32:34.778Z,98984.16
2022-11-20T20:37:36.428Z,98950.84
2022-11-20T20:42:38.071Z,98939.00
2022-11-20T20:47:41.264Z,98985.13
2022-11-20T20:52:43.742Z,98940.41
2022-11-20T20:57:45.381Z,99009.72
2022-11-20T21:02:46.974Z,99016.03
2022-11-20T21:08:07.095Z,98999.97
2022-11-20T21:13:08.704Z,98966.75
2022-11-20T21:18:10.246Z,98971.03
2022-11-20T21:23:11.870Z,98998.84
2022-11-20T21:28:18.041Z,99008.72
2022-11-20T21:33:20.022Z,98974.97
2022-11-20T21:38:21.562Z,98969.94
2022-11-20T21:43:23.137Z,98978.56
2022-11-20T21:48:29.122Z,98972.22
2022-11-20T21:53:31.375Z,98996.53
2022-11-20T21:58:35.108Z,99039.06
2022-11-20T22:03:37.500Z,99004.22
2022-11-20T22:08:39.195Z,99057.56
2022-11-20T22:13:59.899Z,99027.25
2022-11-20T22:19:01.811Z,99028.09
2022-11-20T22:24:03.619Z,99004.91
2022-11-20T22:29:05.307Z,99056.25
2022-11-20T22:34:06.934Z,99046.38
2022-11-20T22:39:08.856Z,99036.66
2022-11-20T22:44:14.333Z,98989.00
2022-11-20T22:49:16.012Z,99001.72
2022-11-20T22:54:17.688Z,99011.69
2022-11-20T22:59:19.234Z,99018.41
2022-11-20T23:04:20.898Z,98965.28
2022-11-20T23:09:22.509Z,98975.63
2022-11-20T23:14:27.705Z,99007.94
2022-11-20T23:19:29.762Z,99009.00
2022-11-20T23:24:31.312Z,98993.41
2022-11-20T23:29:32.937Z,98986.34
2022-11-20T23:34:34.601Z,99028.94
2022-11-20T23:39:36.268Z,99018.78
2022-11-20T23:44:37.818Z,98971.22
2022-11-20T23:49:39.349Z,98955.25
2022-11-20T23:54:40.999Z,98969.97
2022-11-20T23:59:42.685Z,98995.72
